Vohburg — V2OW7 — position and weather

sailwx.info

Track history (hours):
 
Tides and Currents Weather Stations Pressure Air Temp Water Temp Dewpoint Dewpoint Depression Visibility Wind Speed Wind Dir Waves Ship Positions

Vohburg

Last reported at 2016-Jul-23 06:33 UTC. Time now 2016-Jul-24 16:41 UTC.
Position N 59°36' E 023°08'.

Length 140 m; draft 6.5 m.

Type: Ship (hazmat cat A). MMSI: 305773000.

Date/timePositionNaut miles runAvg speedWind from/ knotsBaromVisibWave heightAir tempDewpointWater temp
2016-Jul-23 06:33N 59°36' E 023°08'2512.3
2016-Jul-23 04:33N 59°42' E 023°55'2412.2
2016-Jul-23 02:33N 59°49' E 024°42'5012.4
2016-Jul-22 22:32N 59°60' E 026°19'1212.2
2016-Jul-22 21:33N 60°01' E 026°43'2511.9
2016-Jul-22 19:30N 60°08' E 027°30'1112.1
2016-Jul-22 18:33N 60°11' E 027°52'1212.4
2016-Jul-22 17:33N 60°08' E 028°16'1212.4
2016-Jul-22 16:34N 60°03' E 028°38'1413.5
2016-Jul-22 15:33N 60°02' E 029°05'1212.1
2016-Jul-22 14:33N 60°01' E 029°29'7 6.6
2016-Jul-22 13:31N 60°00' E 029°43'0 0.0
2016-Jul-22 10:33N 60°00' E 029°43'0 0.0
2016-Jul-22 09:33N 60°00' E 029°43'0 0.0
2016-Jul-22 08:30N 60°00' E 029°43'0 0.0
2016-Jul-22 07:33N 60°00' E 029°43'6 2.0
2016-Jul-22 04:33N 60°01' E 029°31'1110.7
2016-Jul-22 03:33N 60°02' E 029°10'1312.7
2016-Jul-22 02:33N 60°02' E 028°44'1312.6
2016-Jul-22 01:33N 60°05' E 028°20'1312.9
2016-Jul-22 00:33N 60°10' E 027°55'1212.3
2016-Jul-21 23:33N 60°07' E 027°31'1313.0
2016-Jul-21 22:32N 59°60' E 027°09'1212.6
2016-Jul-21 21:33N 59°59' E 026°44'53 3.0
2016-Jul-21 04:08N 59°55' E 024°58'915.7
2016-Jul-21 03:34N 59°48' E 024°46'1815.8
2016-Jul-21 02:26N 59°42' E 024°14'1416.1
2016-Jul-21 01:33N 59°38' E 023°47'1615.9
2016-Jul-21 00:33N 59°33' E 023°17'1616.1
2016-Jul-20 23:34N 59°28' E 022°47'1616.0
2016-Jul-20 22:34N 59°20' E 022°20'17515.7
2016-Jul-20 11:23N 57°04' E 018°50'1315.5
2016-Jul-20 10:34N 56°54' E 018°36'1515.4
2016-Jul-20 09:34N 56°43' E 018°16'1615.7
2016-Jul-20 08:33N 56°33' E 017°54'1615.8
2016-Jul-20 07:33N 56°22' E 017°32'1615.9
2016-Jul-20 06:34N 56°13' E 017°09'1916.7
2016-Jul-20 05:27N 56°02' E 016°43'1415.8
2016-Jul-20 04:33N 55°55' E 016°21'1615.8
2016-Jul-20 03:33N 55°47' E 015°57'1616.2
2016-Jul-20 02:34N 55°39' E 015°31'1616.1
2016-Jul-20 01:33N 55°32' E 015°06'1616.1
2016-Jul-20 00:33N 55°24' E 014°41'1615.8
2016-Jul-19 23:33N 55°13' E 014°22'1515.5
2016-Jul-19 22:34N 55°01' E 014°04'1616.1
2016-Jul-19 21:33N 54°55' E 013°37'3216.0
2016-Jul-19 19:34N 54°45' E 012°45'1716.3
2016-Jul-19 18:29N 54°36' E 012°20'1414.7
2016-Jul-19 17:33N 54°24' E 012°06'1515.4
2016-Jul-19 16:33N 54°18' E 011°42'1616.0
2016-Jul-19 15:33N 54°10' E 011°18'9 0.4
2016-Jul-18 15:31N 54°05' E 011°05'1414.6
2016-Jul-18 14:33N 54°15' E 011°21'1413.9
2016-Jul-18 13:33N 54°29' E 011°22'1514.5
2016-Jul-18 12:33N 54°38' E 011°02'1312.7
2016-Jul-18 11:34N 54°49' E 010°51'1514.7
2016-Jul-18 10:33N 55°02' E 011°01'1414.3
2016-Jul-18 09:33N 55°17' E 011°04'4613.5
2016-Jul-18 06:09N 56°02' E 011°05'914.7
2016-Jul-18 05:30N 56°12' E 011°05'6013.9
2016-Jul-18 01:14N 57°10' E 010°45'1013.7
2016-Jul-18 00:31N 57°20' E 010°42'1414.5
2016-Jul-17 23:34N 57°34' E 010°45'1312.9
2016-Jul-17 22:34N 57°47' E 010°41'19214.3
2016-Jul-17 09:08N 55°31' E 006°34'7014.9
2016-Jul-17 04:28N 54°31' E 005°33'1515.1
2016-Jul-17 03:29N 54°18' E 005°20'1414.9
2016-Jul-17 02:33N 54°06' E 005°09'1514.9
2016-Jul-17 01:33N 53°52' E 004°59'1514.8
2016-Jul-17 00:33N 53°38' E 004°51'3114.7
2016-Jul-16 22:25N 53°10' E 004°30'1315.0
2016-Jul-16 21:33N 52°58' E 004°19'1615.1
2016-Jul-16 20:29N 52°44' E 004°06'1415.3
2016-Jul-16 19:32N 52°33' E 003°51'1515.0
2016-Jul-16 18:33N 52°20' E 003°38'1715.0
2016-Jul-16 17:26N 52°05' E 003°26'1212.8
2016-Jul-16 16:30N 51°54' E 003°22'1414.4
2016-Jul-16 15:33N 51°43' E 003°07'1514.8
2016-Jul-16 14:33N 51°33' E 002°51'1010.3
2016-Jul-16 13:33N 51°22' E 002°50'1313.5
2016-Jul-16 12:33N 51°21' E 003°12'0 0.2
2016-Jul-16 11:29N 51°21' E 003°11'0 0.0
2016-Jul-16 10:14N 51°21' E 003°11'0 0.0
2016-Jul-16 09:26N 51°21' E 003°11'0 0.0
2016-Jul-16 08:29N 51°21' E 003°11'0 0.0
2016-Jul-16 07:23N 51°21' E 003°11'0 0.0
2016-Jul-16 06:23N 51°21' E 003°11'0 0.0
2016-Jul-16 03:29N 51°21' E 003°11'0 0.0
2016-Jul-16 02:33N 51°21' E 003°11'9 9.3
2016-Jul-16 01:33N 51°23' E 002°57'1615.0
2016-Jul-16 00:30N 51°22' E 002°31'1516.4
2016-Jul-15 23:33N 51°21' E 002°07'1616.4
2016-Jul-15 22:34N 51°29' E 001°44'1515.4
2016-Jul-15 21:33N 51°29' E 001°19'1615.8
2016-Jul-15 20:33N 51°29' E 000°54'9 8.3
2016-Jul-15 19:32N 51°26' E 000°41'0 0.0
2016-Jul-15 18:32N 51°26' E 000°41'0 0.0
2016-Jul-15 17:32N 51°26' E 000°41'0 0.0
2016-Jul-15 16:32N 51°26' E 000°41'0 0.0
2016-Jul-15 15:32N 51°26' E 000°41'0 0.0
2016-Jul-15 14:32N 51°26' E 000°41'0 0.0
2016-Jul-15 13:29N 51°26' E 000°41'0 0.0
2016-Jul-15 12:32N 51°26' E 000°41'0 0.0
2016-Jul-15 11:32N 51°26' E 000°41'0 0.0
2016-Jul-15 10:32N 51°26' E 000°41'0 0.0
2016-Jul-15 09:29N 51°26' E 000°41'0 0.0
2016-Jul-15 08:32N 51°26' E 000°41'0 0.0
2016-Jul-15 07:34N 51°26' E 000°41'9 9.3
2016-Jul-15 06:33N 51°29' E 000°55'1616.5
2016-Jul-15 05:34N 51°29' E 001°22'8 8.1
2016-Jul-15 04:33N 51°28' E 001°35'1212.3
2016-Jul-15 03:33N 51°38' E 001°45'1313.0
2016-Jul-15 02:34N 51°51' E 001°43'1413.5
2016-Jul-15 01:33N 52°05' E 001°47'3913.1
2016-Jul-14 22:33N 52°43' E 001°56'1212.4
2016-Jul-14 21:33N 52°51' E 001°40'1212.2
2016-Jul-14 20:33N 53°01' E 001°28'1312.7
2016-Jul-14 19:33N 53°12' E 001°18'1212.4
2016-Jul-14 18:33N 53°23' E 001°08'1312.5
2016-Jul-14 17:31N 53°34' E 000°56'1212.7
2016-Jul-14 16:33N 53°44' E 000°43'1312.5
2016-Jul-14 15:32N 53°53' E 000°29'1212.4
2016-Jul-14 14:33N 54°02' E 000°16'1312.7
2016-Jul-14 13:33N 54°12' E 000°02'1312.6
2016-Jul-14 12:33N 54°22' W 000°12'1312.7
2016-Jul-14 11:33N 54°31' W 000°27'1412.7
2016-Jul-14 10:28N 54°37' W 000°48'12 2.0
2016-Jul-14 04:18N 54°38' W 001°09'911.7
2016-Jul-14 03:33N 54°44' W 000°59'1010.1
2016-Jul-14 02:33N 54°48' W 000°43'10 9.9
2016-Jul-14 01:33N 54°52' W 000°27'1210.0
2016-Jul-14 00:19N 54°57' W 000°07'  
Track history (hours):
 
Tides and Currents Weather Stations Pressure Air Temp Water Temp Dewpoint Dewpoint Depression Visibility Wind Speed Wind Dir Waves Ship Positions

Vohburg

Last reported at 2016-Jul-23 06:33 UTC. Time now 2016-Jul-24 16:41 UTC.
Position N 59°36' E 023°08'.

Length 140 m; draft 6.5 m.

Type: Ship (hazmat cat A). MMSI: 305773000.

Date/timePositionNaut miles runAvg speedWind from/ knotsBaromVisibWave heightAir tempDewpointWater temp
2016-Jul-23 06:33N 59°36' E 023°08'2512.3
2016-Jul-23 04:33N 59°42' E 023°55'2412.2
2016-Jul-23 02:33N 59°49' E 024°42'5012.4
2016-Jul-22 22:32N 59°60' E 026°19'1212.2
2016-Jul-22 21:33N 60°01' E 026°43'2511.9
2016-Jul-22 19:30N 60°08' E 027°30'1112.1
2016-Jul-22 18:33N 60°11' E 027°52'1212.4
2016-Jul-22 17:33N 60°08' E 028°16'1212.4
2016-Jul-22 16:34N 60°03' E 028°38'1413.5
2016-Jul-22 15:33N 60°02' E 029°05'1212.1
2016-Jul-22 14:33N 60°01' E 029°29'7 6.6
2016-Jul-22 13:31N 60°00' E 029°43'0 0.0
2016-Jul-22 10:33N 60°00' E 029°43'0 0.0
2016-Jul-22 09:33N 60°00' E 029°43'0 0.0
2016-Jul-22 08:30N 60°00' E 029°43'0 0.0
2016-Jul-22 07:33N 60°00' E 029°43'6 2.0
2016-Jul-22 04:33N 60°01' E 029°31'1110.7
2016-Jul-22 03:33N 60°02' E 029°10'1312.7
2016-Jul-22 02:33N 60°02' E 028°44'1312.6
2016-Jul-22 01:33N 60°05' E 028°20'1312.9
2016-Jul-22 00:33N 60°10' E 027°55'1212.3
2016-Jul-21 23:33N 60°07' E 027°31'1313.0
2016-Jul-21 22:32N 59°60' E 027°09'1212.6
2016-Jul-21 21:33N 59°59' E 026°44'53 3.0
2016-Jul-21 04:08N 59°55' E 024°58'915.7
2016-Jul-21 03:34N 59°48' E 024°46'1815.8
2016-Jul-21 02:26N 59°42' E 024°14'1416.1
2016-Jul-21 01:33N 59°38' E 023°47'1615.9
2016-Jul-21 00:33N 59°33' E 023°17'1616.1
2016-Jul-20 23:34N 59°28' E 022°47'1616.0
2016-Jul-20 22:34N 59°20' E 022°20'17515.7
2016-Jul-20 11:23N 57°04' E 018°50'1315.5
2016-Jul-20 10:34N 56°54' E 018°36'1515.4
2016-Jul-20 09:34N 56°43' E 018°16'1615.7
2016-Jul-20 08:33N 56°33' E 017°54'1615.8
2016-Jul-20 07:33N 56°22' E 017°32'1615.9
2016-Jul-20 06:34N 56°13' E 017°09'1916.7
2016-Jul-20 05:27N 56°02' E 016°43'1415.8
2016-Jul-20 04:33N 55°55' E 016°21'1615.8
2016-Jul-20 03:33N 55°47' E 015°57'1616.2
2016-Jul-20 02:34N 55°39' E 015°31'1616.1
2016-Jul-20 01:33N 55°32' E 015°06'1616.1
2016-Jul-20 00:33N 55°24' E 014°41'1615.8
2016-Jul-19 23:33N 55°13' E 014°22'1515.5
2016-Jul-19 22:34N 55°01' E 014°04'1616.1
2016-Jul-19 21:33N 54°55' E 013°37'3216.0
2016-Jul-19 19:34N 54°45' E 012°45'1716.3
2016-Jul-19 18:29N 54°36' E 012°20'1414.7
2016-Jul-19 17:33N 54°24' E 012°06'1515.4
2016-Jul-19 16:33N 54°18' E 011°42'1616.0
2016-Jul-19 15:33N 54°10' E 011°18'9 0.4
2016-Jul-18 15:31N 54°05' E 011°05'1414.6
2016-Jul-18 14:33N 54°15' E 011°21'1413.9
2016-Jul-18 13:33N 54°29' E 011°22'1514.5
2016-Jul-18 12:33N 54°38' E 011°02'1312.7
2016-Jul-18 11:34N 54°49' E 010°51'1514.7
2016-Jul-18 10:33N 55°02' E 011°01'1414.3
2016-Jul-18 09:33N 55°17' E 011°04'4613.5
2016-Jul-18 06:09N 56°02' E 011°05'914.7
2016-Jul-18 05:30N 56°12' E 011°05'6013.9
2016-Jul-18 01:14N 57°10' E 010°45'1013.7
2016-Jul-18 00:31N 57°20' E 010°42'1414.5
2016-Jul-17 23:34N 57°34' E 010°45'1312.9
2016-Jul-17 22:34N 57°47' E 010°41'19214.3
2016-Jul-17 09:08N 55°31' E 006°34'7014.9
2016-Jul-17 04:28N 54°31' E 005°33'1515.1
2016-Jul-17 03:29N 54°18' E 005°20'1414.9
2016-Jul-17 02:33N 54°06' E 005°09'1514.9
2016-Jul-17 01:33N 53°52' E 004°59'1514.8
2016-Jul-17 00:33N 53°38' E 004°51'3114.7
2016-Jul-16 22:25N 53°10' E 004°30'1315.0
2016-Jul-16 21:33N 52°58' E 004°19'1615.1
2016-Jul-16 20:29N 52°44' E 004°06'1415.3
2016-Jul-16 19:32N 52°33' E 003°51'1515.0
2016-Jul-16 18:33N 52°20' E 003°38'1715.0
2016-Jul-16 17:26N 52°05' E 003°26'1212.8
2016-Jul-16 16:30N 51°54' E 003°22'1414.4
2016-Jul-16 15:33N 51°43' E 003°07'1514.8
2016-Jul-16 14:33N 51°33' E 002°51'1010.3
2016-Jul-16 13:33N 51°22' E 002°50'1313.5
2016-Jul-16 12:33N 51°21' E 003°12'0 0.2
2016-Jul-16 11:29N 51°21' E 003°11'0 0.0
2016-Jul-16 10:14N 51°21' E 003°11'0 0.0
2016-Jul-16 09:26N 51°21' E 003°11'0 0.0
2016-Jul-16 08:29N 51°21' E 003°11'0 0.0
2016-Jul-16 07:23N 51°21' E 003°11'0 0.0
2016-Jul-16 06:23N 51°21' E 003°11'0 0.0
2016-Jul-16 03:29N 51°21' E 003°11'0 0.0
2016-Jul-16 02:33N 51°21' E 003°11'9 9.3
2016-Jul-16 01:33N 51°23' E 002°57'1615.0
2016-Jul-16 00:30N 51°22' E 002°31'1516.4
2016-Jul-15 23:33N 51°21' E 002°07'1616.4
2016-Jul-15 22:34N 51°29' E 001°44'1515.4
2016-Jul-15 21:33N 51°29' E 001°19'1615.8
2016-Jul-15 20:33N 51°29' E 000°54'9 8.3
2016-Jul-15 19:32N 51°26' E 000°41'0 0.0
2016-Jul-15 18:32N 51°26' E 000°41'0 0.0
2016-Jul-15 17:32N 51°26' E 000°41'0 0.0
2016-Jul-15 16:32N 51°26' E 000°41'0 0.0
2016-Jul-15 15:32N 51°26' E 000°41'0 0.0
2016-Jul-15 14:32N 51°26' E 000°41'0 0.0
2016-Jul-15 13:29N 51°26' E 000°41'0 0.0
2016-Jul-15 12:32N 51°26' E 000°41'0 0.0
2016-Jul-15 11:32N 51°26' E 000°41'0 0.0
2016-Jul-15 10:32N 51°26' E 000°41'0 0.0
2016-Jul-15 09:29N 51°26' E 000°41'0 0.0
2016-Jul-15 08:32N 51°26' E 000°41'0 0.0
2016-Jul-15 07:34N 51°26' E 000°41'9 9.3
2016-Jul-15 06:33N 51°29' E 000°55'1616.5
2016-Jul-15 05:34N 51°29' E 001°22'8 8.1
2016-Jul-15 04:33N 51°28' E 001°35'1212.3
2016-Jul-15 03:33N 51°38' E 001°45'1313.0
2016-Jul-15 02:34N 51°51' E 001°43'1413.5
2016-Jul-15 01:33N 52°05' E 001°47'3913.1
2016-Jul-14 22:33N 52°43' E 001°56'1212.4
2016-Jul-14 21:33N 52°51' E 001°40'1212.2
2016-Jul-14 20:33N 53°01' E 001°28'1312.7
2016-Jul-14 19:33N 53°12' E 001°18'1212.4
2016-Jul-14 18:33N 53°23' E 001°08'1312.5
2016-Jul-14 17:31N 53°34' E 000°56'1212.7
2016-Jul-14 16:33N 53°44' E 000°43'1312.5
2016-Jul-14 15:32N 53°53' E 000°29'1212.4
2016-Jul-14 14:33N 54°02' E 000°16'1312.7
2016-Jul-14 13:33N 54°12' E 000°02'1312.6
2016-Jul-14 12:33N 54°22' W 000°12'1312.7
2016-Jul-14 11:33N 54°31' W 000°27'1412.7
2016-Jul-14 10:28N 54°37' W 000°48'12 2.0
2016-Jul-14 04:18N 54°38' W 001°09'911.7
2016-Jul-14 03:33N 54°44' W 000°59'1010.1
2016-Jul-14 02:33N 54°48' W 000°43'10 9.9
2016-Jul-14 01:33N 54°52' W 000°27'1210.0
2016-Jul-14 00:19N 54°57' W 000°07'  

Dump ship's entire track history